createdAt,value
2019-02-15T00:00:12.108Z,19.1
2019-02-15T00:01:02.425Z,19.1
2019-02-15T00:01:52.483Z,19.1
2019-02-15T00:02:41.498Z,19.1
2019-02-15T00:03:32.620Z,19.1
2019-02-15T00:04:22.400Z,19.1
2019-02-15T00:05:12.429Z,19.1
2019-02-15T00:06:02.526Z,19.1
2019-02-15T00:06:52.272Z,19.1
2019-02-15T00:07:42.879Z,19.1
2019-02-15T00:08:32.650Z,19.1
2019-02-15T00:09:21.980Z,19.1
2019-02-15T00:10:12.759Z,19.1
2019-02-15T00:11:02.571Z,19.1
2019-02-15T00:11:52.943Z,19.1
2019-02-15T00:12:42.967Z,19.1
2019-02-15T00:13:32.987Z,19.1
2019-02-15T00:14:23.065Z,19.1
2019-02-15T00:15:13.384Z,19.1
2019-02-15T00:16:02.902Z,19.1
2019-02-15T00:16:52.993Z,19.1
2019-02-15T00:17:43.281Z,19.1
2019-02-15T00:18:33.497Z,19.1
2019-02-15T00:19:23.727Z,19.1
2019-02-15T00:20:13.452Z,19.1
2019-02-15T00:21:03.789Z,19.1
2019-02-15T00:21:53.296Z,19.1
2019-02-15T00:22:43.631Z,19
2019-02-15T00:23:33.122Z,19.1
2019-02-15T00:24:24.016Z,19.1
2019-02-15T00:25:13.529Z,19.1
2019-02-15T00:26:03.842Z,19.1
2019-02-15T00:26:53.936Z,19
2019-02-15T00:27:43.699Z,19.1
2019-02-15T00:28:34.296Z,19
2019-02-15T00:29:24.359Z,19.1
2019-02-15T00:30:14.131Z,19.1
2019-02-15T00:31:03.929Z,19
2019-02-15T00:31:54.312Z,19
2019-02-15T00:32:44.307Z,19
2019-02-15T00:33:34.083Z,19
2019-02-15T00:34:24.748Z,19
2019-02-15T00:35:14.476Z,19
2019-02-15T00:36:04.559Z,19
2019-02-15T00:36:54.578Z,19
2019-02-15T00:37:44.919Z,19
2019-02-15T00:38:34.408Z,19
2019-02-15T00:39:24.488Z,19
2019-02-15T00:40:14.268Z,19
2019-02-15T00:41:04.313Z,19
2019-02-15T00:41:54.952Z,19
2019-02-15T00:42:44.711Z,19
2019-02-15T00:43:34.490Z,19
2019-02-15T00:44:25.093Z,19
2019-02-15T00:45:14.354Z,19
2019-02-15T00:46:04.392Z,19
2019-02-15T00:46:55.271Z,19
2019-02-15T00:47:44.765Z,19
2019-02-15T00:48:35.120Z,19
2019-02-15T00:49:25.222Z,18.9
2019-02-15T00:50:15.555Z,19
2019-02-15T00:51:05.281Z,19
2019-02-15T00:51:55.612Z,18.9
2019-02-15T00:52:45.385Z,18.9
2019-02-15T00:53:35.747Z,18.9
2019-02-15T00:54:25.783Z,19
2019-02-15T00:55:16.112Z,18.9
2019-02-15T00:56:05.909Z,18.9
2019-02-15T00:56:56.216Z,18.9
2019-02-15T00:57:45.749Z,18.9
2019-02-15T00:58:36.050Z,19
2019-02-15T00:59:26.491Z,18.9
2019-02-15T01:00:16.171Z,18.9
2019-02-15T01:01:06.581Z,18.9
2019-02-15T01:01:55.476Z,18.9
2019-02-15T01:02:46.348Z,18.9
2019-02-15T01:03:35.866Z,18.9
2019-02-15T01:04:26.499Z,18.9
2019-02-15T01:05:16.254Z,18.9
2019-02-15T01:06:06.581Z,18.9
2019-02-15T01:06:56.637Z,18.9
2019-02-15T01:07:46.431Z,18.9
2019-02-15T01:08:36.473Z,18.9
2019-02-15T01:09:26.330Z,18.9
2019-02-15T01:10:16.638Z,18.9
2019-02-15T01:11:06.477Z,18.9
2019-02-15T01:11:56.711Z,18.9
2019-02-15T01:12:46.485Z,18.9
2019-02-15T01:13:36.821Z,18.9
2019-02-15T01:14:27.436Z,18.9
2019-02-15T01:15:17.213Z,18.9
2019-02-15T01:16:07.263Z,18.9
2019-02-15T01:16:57.321Z,18.9
2019-02-15T01:17:47.396Z,18.9
2019-02-15T01:18:37.711Z,18.9
2019-02-15T01:19:27.488Z,18.9
2019-02-15T01:20:17.568Z,18.9
2019-02-15T01:21:07.591Z,18.9
2019-02-15T01:21:57.948Z,18.9
2019-02-15T01:22:47.473Z,18.9
2019-02-15T01:23:37.800Z,18.9
2019-02-15T01:24:27.581Z,18.9
2019-02-15T01:25:18.169Z,18.9
2019-02-15T01:26:07.718Z,18.9
2019-02-15T01:26:58.002Z,18.9
2019-02-15T01:27:47.787Z,18.9
2019-02-15T01:28:38.387Z,18.9
2019-02-15T01:29:27.905Z,18.9
2019-02-15T01:30:17.974Z,18.9
2019-02-15T01:31:08.308Z,18.9
2019-02-15T01:31:58.625Z,18.9
2019-02-15T01:32:48.420Z,18.9
2019-02-15T01:33:38.447Z,18.9
2019-02-15T01:34:28.524Z,18.9
2019-02-15T01:35:18.577Z,18.8
2019-02-15T01:36:08.922Z,18.9
2019-02-15T01:36:58.954Z,18.9
2019-02-15T01:37:49.039Z,18.9
2019-02-15T01:38:38.810Z,18.9
2019-02-15T01:39:28.597Z,18.9
2019-02-15T01:40:18.643Z,18.9
2019-02-15T01:41:08.967Z,18.9
2019-02-15T01:41:59.323Z,18.8
2019-02-15T01:42:48.799Z,18.8
2019-02-15T01:43:43.765Z,18.9
2019-02-15T01:44:28.954Z,18.8
2019-02-15T01:45:18.734Z,18.8
2019-02-15T01:46:09.590Z,18.8
2019-02-15T01:46:59.972Z,18.8
2019-02-15T01:47:49.188Z,18.8
2019-02-15T01:48:39.216Z,18.8
2019-02-15T01:49:29.344Z,18.9
2019-02-15T01:50:19.064Z,18.8
2019-02-15T01:51:09.683Z,18.8
2019-02-15T01:52:00.046Z,18.8
2019-02-15T01:52:49.811Z,18.8
2019-02-15T01:53:40.214Z,18.8
2019-02-15T01:54:30.172Z,18.8
2019-02-15T01:55:19.978Z,18.8
2019-02-15T01:56:09.558Z,18.8
2019-02-15T01:56:59.805Z,18.8
2019-02-15T01:57:50.151Z,18.8
2019-02-15T01:58:40.458Z,18.8
2019-02-15T01:59:30.258Z,18.8
2019-02-15T02:00:20.076Z,18.8
2019-02-15T02:01:09.808Z,18.8
2019-02-15T02:02:00.426Z,18.8
2019-02-15T02:02:50.723Z,18.8
2019-02-15T02:03:40.527Z,18.8
2019-02-15T02:04:30.570Z,18.8
2019-02-15T02:05:20.673Z,18.8
2019-02-15T02:06:10.747Z,18.8
2019-02-15T02:07:00.492Z,18.8
2019-02-15T02:07:50.805Z,18.8
2019-02-15T02:08:41.165Z,18.8
2019-02-15T02:09:30.678Z,18.8
2019-02-15T02:10:20.742Z,18.8
2019-02-15T02:11:10.809Z,18.8
2019-02-15T02:12:00.602Z,18.8
2019-02-15T02:12:51.187Z,18.8
2019-02-15T02:13:51.098Z,18.8
2019-02-15T02:14:31.295Z,18.8
2019-02-15T02:15:21.631Z,18.8
2019-02-15T02:16:10.839Z,18.8
2019-02-15T02:17:01.452Z,18.8
2019-02-15T02:17:51.830Z,18.8
2019-02-15T02:18:41.583Z,18.8
2019-02-15T02:19:31.884Z,18.8
2019-02-15T02:20:21.674Z,18.8
2019-02-15T02:21:11.469Z,18.8
2019-02-15T02:22:01.801Z,18.8
2019-02-15T02:22:52.189Z,18.8
2019-02-15T02:23:41.084Z,18.8
2019-02-15T02:24:31.672Z,18.8
2019-02-15T02:25:21.792Z,18.8
2019-02-15T02:26:11.792Z,18.8
2019-02-15T02:27:01.918Z,18.8
2019-02-15T02:27:51.936Z,18.8
2019-02-15T02:28:42.251Z,18.8
2019-02-15T02:29:32.076Z,18.8
2019-02-15T02:30:22.657Z,18.8
2019-02-15T02:31:12.170Z,18.8
2019-02-15T02:32:02.548Z,18.8
2019-02-15T02:32:52.839Z,18.8
2019-02-15T02:33:42.858Z,18.8
2019-02-15T02:34:32.375Z,18.8
2019-02-15T02:35:22.839Z,18.8
2019-02-15T02:36:12.229Z,18.8
2019-02-15T02:37:02.884Z,18.8
2019-02-15T02:37:52.900Z,18.8
2019-02-15T02:38:42.693Z,18.8
2019-02-15T02:39:33.315Z,18.8
2019-02-15T02:40:22.823Z,18.8
2019-02-15T02:41:13.138Z,18.8
2019-02-15T02:42:03.188Z,18.8
2019-02-15T02:42:53.567Z,18.8
2019-02-15T02:43:43.058Z,18.8
2019-02-15T02:44:33.356Z,18.8
2019-02-15T02:47:03.536Z,18.8
2019-02-15T02:48:43.672Z,18.8
2019-02-15T02:49:33.690Z,18.8
2019-02-15T02:50:24.045Z,18.8
2019-02-15T02:51:13.830Z,18.8
2019-02-15T02:52:04.137Z,18.8
2019-02-15T02:52:54.247Z,18.8
2019-02-15T02:53:44.004Z,18.8
2019-02-15T02:54:34.419Z,18.8
2019-02-15T02:55:23.624Z,18.8
2019-02-15T02:56:13.874Z,18.8
2019-02-15T02:57:04.229Z,18.8
2019-02-15T02:57:54.552Z,18.8
2019-02-15T02:58:44.093Z,18.8
2019-02-15T02:59:34.405Z,18.8
2019-02-15T03:00:34.788Z,18.8
2019-02-15T03:01:14.856Z,18.8
2019-02-15T03:02:04.867Z,18.8
2019-02-15T03:02:54.611Z,18.8
2019-02-15T03:03:45.064Z,18.8
2019-02-15T03:04:34.509Z,18.8
2019-02-15T03:08:08.094Z,18.8
2019-02-15T03:08:57.011Z,18.8
2019-02-15T03:09:47.433Z,18.8
2019-02-15T03:10:37.452Z,18.8
2019-02-15T03:11:27.518Z,18.8
2019-02-15T03:12:17.536Z,18.8
2019-02-15T03:13:08.421Z,18.8
2019-02-15T03:13:57.971Z,18.8
2019-02-15T03:14:48.534Z,18.8
2019-02-15T03:15:38.566Z,18.8
2019-02-15T03:16:27.839Z,18.8
2019-02-15T03:17:17.903Z,18.8
2019-02-15T03:18:08.786Z,18.8
2019-02-15T03:18:58.551Z,18.8
2019-02-15T03:19:48.331Z,18.8
2019-02-15T03:20:38.966Z,18.8
2019-02-15T03:21:28.192Z,18.8
2019-02-15T03:22:18.799Z,18.8
2019-02-15T03:23:08.643Z,18.8
2019-02-15T03:23:59.148Z,18.8
2019-02-15T03:24:49.038Z,18.8
2019-02-15T03:25:39.036Z,18.8
2019-02-15T03:26:29.096Z,18.8
2019-02-15T03:27:18.894Z,18.8
2019-02-15T03:28:08.927Z,18.8
2019-02-15T03:28:59.550Z,18.8
2019-02-15T03:29:48.998Z,18.8
2019-02-15T03:30:39.804Z,18.8
2019-02-15T03:31:29.665Z,18.8
2019-02-15T03:32:19.664Z,18.8
2019-02-15T03:33:10.059Z,18.8
2019-02-15T03:33:59.758Z,18.8
2019-02-15T03:34:49.080Z,18.8
2019-02-15T03:35:39.445Z,18.8
2019-02-15T03:36:29.905Z,18.8
2019-02-15T03:37:19.831Z,18.8
2019-02-15T03:38:10.157Z,18.8
2019-02-15T03:38:59.945Z,18.8
2019-02-15T03:39:49.990Z,18.8
2019-02-15T03:40:40.337Z,18.8
2019-02-15T03:41:29.862Z,18.8
2019-02-15T03:42:20.450Z,18.8
2019-02-15T03:43:10.264Z,18.8
2019-02-15T03:44:00.028Z,18.9
2019-02-15T03:44:50.665Z,18.8
2019-02-15T03:45:40.766Z,18.8
2019-02-15T03:46:29.952Z,18.8
2019-02-15T03:47:20.492Z,18.8
2019-02-15T03:48:10.030Z,18.8
2019-02-15T03:49:00.650Z,18.9
2019-02-15T03:49:50.455Z,18.8
2019-02-15T03:50:41.030Z,18.8
2019-02-15T03:51:31.126Z,18.9
2019-02-15T03:52:21.131Z,18.8
2019-02-15T03:53:10.942Z,18.8
2019-02-15T03:54:00.445Z,18.9
2019-02-15T03:54:50.762Z,18.9
2019-02-15T03:55:41.146Z,18.8
2019-02-15T03:56:31.137Z,18.8
2019-02-15T03:57:21.249Z,18.8
2019-02-15T03:58:10.473Z,18.9
2019-02-15T03:59:01.361Z,18.8
2019-02-15T03:59:51.633Z,18.8
2019-02-15T04:00:41.738Z,18.8
2019-02-15T04:01:31.263Z,18.9
2019-02-15T04:02:21.019Z,18.8
2019-02-15T04:03:11.372Z,18.8
2019-02-15T04:04:01.103Z,18.8
2019-02-15T04:04:51.718Z,18.8
2019-02-15T04:05:41.785Z,18.9
2019-02-15T04:06:31.651Z,18.9
2019-02-15T04:07:21.976Z,18.9
2019-02-15T04:08:11.411Z,18.8
2019-02-15T04:09:02.085Z,18.8
2019-02-15T04:09:52.370Z,18.9
2019-02-15T04:10:42.116Z,18.8
2019-02-15T04:11:31.542Z,18.9
2019-02-15T04:12:22.243Z,18.8
2019-02-15T04:13:12.588Z,18.8
2019-02-15T04:14:02.419Z,18.9
2019-02-15T04:14:52.407Z,18.9
2019-02-15T04:15:42.447Z,18.8
2019-02-15T04:16:32.530Z,18.8
2019-02-15T04:17:22.849Z,18.8
2019-02-15T04:18:12.675Z,18.8
2019-02-15T04:19:02.156Z,18.8
2019-02-15T04:19:52.444Z,18.8
2019-02-15T04:20:42.553Z,18.8
2019-02-15T04:21:32.903Z,18.9
2019-02-15T04:22:22.933Z,18.8
2019-02-15T04:23:12.424Z,18.8
2019-02-15T04:24:03.435Z,18.8
2019-02-15T04:24:53.074Z,18.8
2019-02-15T04:25:43.070Z,18.9
2019-02-15T04:26:33.204Z,18.8
2019-02-15T04:27:23.539Z,18.8
2019-02-15T04:28:13.394Z,18.8
2019-02-15T04:29:03.141Z,18.8
2019-02-15T04:29:53.200Z,18.8
2019-02-15T04:30:43.584Z,18.8
2019-02-15T04:31:33.345Z,18.8
2019-02-15T04:32:23.877Z,18.8
2019-02-15T04:33:13.111Z,18.8
2019-02-15T04:34:03.739Z,18.8
2019-02-15T04:34:53.776Z,18.8
2019-02-15T04:35:43.614Z,18.8
2019-02-15T04:36:33.878Z,18.8
2019-02-15T04:37:23.731Z,18.8
2019-02-15T04:38:14.013Z,18.8
2019-02-15T04:39:03.806Z,18.8
2019-02-15T04:39:54.122Z,18.8
2019-02-15T04:40:43.671Z,18.8
2019-02-15T04:41:34.370Z,18.8
2019-02-15T04:42:24.335Z,18.8
2019-02-15T04:43:14.073Z,18.8
2019-02-15T04:44:04.706Z,18.8
2019-02-15T04:44:54.718Z,18.8
2019-02-15T04:45:44.265Z,18.8
2019-02-15T04:46:34.658Z,18.8
2019-02-15T04:47:24.139Z,18.8
2019-02-15T04:48:14.706Z,18.8
2019-02-15T04:49:04.488Z,18.8
2019-02-15T04:49:54.622Z,18.8
2019-02-15T04:50:44.678Z,18.8
2019-02-15T04:51:34.916Z,18.8
2019-02-15T04:52:25.294Z,18.8
2019-02-15T04:53:15.325Z,18.8
2019-02-15T04:54:04.802Z,18.8
2019-02-15T04:54:55.437Z,18.8
2019-02-15T04:55:45.527Z,18.8
2019-02-15T04:56:35.316Z,18.8
2019-02-15T04:57:25.055Z,18.8
2019-02-15T04:58:15.096Z,18.8
2019-02-15T04:59:05.463Z,18.8
2019-02-15T04:59:55.509Z,18.8
2019-02-15T05:00:45.574Z,18.8
2019-02-15T05:01:35.607Z,18.8
2019-02-15T05:02:25.389Z,18.8
2019-02-15T05:03:15.776Z,18.8
2019-02-15T05:04:06.055Z,18.8
2019-02-15T05:04:56.162Z,18.8
2019-02-15T05:05:45.672Z,18.9
2019-02-15T05:06:35.769Z,18.8
2019-02-15T05:07:25.207Z,18.9
2019-02-15T05:08:15.856Z,18.9
2019-02-15T05:09:05.876Z,18.9
2019-02-15T05:09:55.629Z,18.9
2019-02-15T05:10:46.356Z,18.9
2019-02-15T05:11:36.364Z,18.9
2019-02-15T05:12:26.086Z,18.9
2019-02-15T05:13:16.473Z,18.9
2019-02-15T05:14:06.480Z,18.9
2019-02-15T05:14:56.561Z,18.9
2019-02-15T05:15:46.850Z,18.9
2019-02-15T05:16:36.922Z,18.9
2019-02-15T05:17:26.418Z,18.9
2019-02-15T05:18:16.190Z,18.9
2019-02-15T05:19:06.038Z,18.9
2019-02-15T05:19:56.854Z,18.9
2019-02-15T05:20:46.924Z,18.9
2019-02-15T05:21:37.253Z,18.9
2019-02-15T05:22:27.295Z,18.9
2019-02-15T05:23:16.599Z,18.9
2019-02-15T05:24:07.435Z,18.9
2019-02-15T05:24:57.219Z,18.9
2019-02-15T05:25:47.289Z,18.9
2019-02-15T05:26:37.041Z,18.9
2019-02-15T05:27:26.640Z,18.9
2019-02-15T05:28:17.435Z,18.9
2019-02-15T05:29:07.837Z,18.9
2019-02-15T05:29:57.834Z,18.9
2019-02-15T05:30:47.341Z,18.9
2019-02-15T05:31:37.695Z,18.9
2019-02-15T05:32:28.012Z,18.9
2019-02-15T05:33:16.947Z,18.9
2019-02-15T05:34:07.573Z,18.9
2019-02-15T05:34:57.638Z,18.9
2019-02-15T05:35:47.702Z,18.9
2019-02-15T05:36:38.325Z,18.9
2019-02-15T05:37:28.165Z,18.9
2019-02-15T05:38:18.405Z,18.9
2019-02-15T05:39:08.157Z,18.9
2019-02-15T05:39:57.698Z,18.9
2019-02-15T05:40:48.289Z,18.9
2019-02-15T05:41:38.430Z,18.9
2019-02-15T05:42:28.431Z,18.9
2019-02-15T05:43:18.195Z,18.9
2019-02-15T05:44:08.545Z,18.9
2019-02-15T05:45:07.861Z,18.9
2019-02-15T05:45:48.340Z,18.9
2019-02-15T05:46:39.029Z,18.9
2019-02-15T05:47:29.031Z,18.9
2019-02-15T05:48:19.127Z,18.9
2019-02-15T05:49:08.919Z,18.9
2019-02-15T05:49:58.942Z,18.9
2019-02-15T05:50:48.716Z,18.9
2019-02-15T05:51:39.034Z,18.9
2019-02-15T05:52:28.808Z,18.9
2019-02-15T05:53:19.407Z,18.9
2019-02-15T05:54:08.919Z,18.9
2019-02-15T05:54:58.725Z,18.9
2019-02-15T05:55:49.041Z,18.9
2019-02-15T05:56:39.713Z,18.9
2019-02-15T05:57:29.404Z,18.9
2019-02-15T05:58:19.206Z,18.9
2019-02-15T05:59:08.736Z,18.9
2019-02-15T05:59:59.873Z,18.9
2019-02-15T06:00:49.711Z,18.9
2019-02-15T06:01:38.952Z,18.9
2019-02-15T06:02:29.306Z,18.9
2019-02-15T06:03:19.562Z,18.9
2019-02-15T06:04:09.887Z,18.9
2019-02-15T06:06:07.689Z,18.9
2019-02-15T06:06:57.713Z,18.9
2019-02-15T06:07:48.062Z,18.9
2019-02-15T06:08:38.141Z,18.9
2019-02-15T06:09:27.633Z,18.9
2019-02-15T06:10:18.209Z,18.9
2019-02-15T06:11:11.514Z,18.9
2019-02-15T06:11:57.786Z,18.9
2019-02-15T06:12:48.560Z,18.9
2019-02-15T06:13:37.888Z,18.9
2019-02-15T06:14:27.942Z,18.9
2019-02-15T06:15:19.009Z,18.9
2019-02-15T06:16:08.355Z,18.9
2019-02-15T06:16:58.372Z,18.9
2019-02-15T06:17:48.750Z,18.9
2019-02-15T06:18:38.782Z,18.9
2019-02-15T06:19:27.740Z,18.8
2019-02-15T06:20:18.913Z,18.8
2019-02-15T06:21:08.981Z,18.8
2019-02-15T06:21:58.724Z,18.8
2019-02-15T06:22:49.072Z,18.8
2019-02-15T06:23:39.126Z,18.8
2019-02-15T06:24:28.887Z,18.8
2019-02-15T06:25:18.772Z,18.8
2019-02-15T06:26:08.991Z,18.8
2019-02-15T06:26:59.074Z,18.8
2019-02-15T06:27:49.572Z,18.8
2019-02-15T06:28:39.498Z,18.8
2019-02-15T06:29:28.967Z,18.8
2019-02-15T06:30:19.319Z,18.8
2019-02-15T06:31:08.874Z,18.8
2019-02-15T06:31:59.386Z,18.8
2019-02-15T06:32:49.439Z,18.8
2019-02-15T06:33:38.985Z,18.8
2019-02-15T06:34:28.983Z,18.8
2019-02-15T06:35:19.076Z,18.8
2019-02-15T06:36:09.732Z,18.8
2019-02-15T06:37:00.021Z,18.8
2019-02-15T06:37:49.814Z,18.8
2019-02-15T06:38:39.866Z,18.8
2019-02-15T06:39:30.196Z,18.8
2019-02-15T06:40:19.716Z,18.8
2019-02-15T06:41:09.541Z,18.8
2019-02-15T06:42:00.358Z,18.8
2019-02-15T06:42:50.504Z,18.8
2019-02-15T06:43:40.475Z,18.8
2019-02-15T06:44:29.963Z,18.8
2019-02-15T06:45:28.375Z,18.8
2019-02-15T06:46:10.398Z,18.8
2019-02-15T06:47:00.418Z,18.9
2019-02-15T06:47:50.800Z,18.9
2019-02-15T06:48:40.570Z,18.8
2019-02-15T06:49:30.600Z,18.9
2019-02-15T06:50:20.469Z,18.8
2019-02-15T06:51:10.756Z,18.8
2019-02-15T06:52:00.829Z,18.8
2019-02-15T06:52:50.570Z,18.8
2019-02-15T06:53:40.908Z,18.8
2019-02-15T06:54:30.650Z,18.8
2019-02-15T06:55:20.703Z,18.9
2019-02-15T06:56:11.342Z,18.8
2019-02-15T06:57:01.382Z,18.8
2019-02-15T06:57:51.450Z,18.8
2019-02-15T06:58:49.003Z,18.9
2019-02-15T06:59:30.989Z,18.9
2019-02-15T07:00:20.792Z,18.8
2019-02-15T07:01:11.671Z,18.9
2019-02-15T07:02:01.441Z,18.9
2019-02-15T07:02:51.249Z,18.8
2019-02-15T07:03:43.365Z,18.8
2019-02-15T07:06:07.212Z,18.8
2019-02-15T07:06:57.562Z,18.8
2019-02-15T07:07:48.041Z,18.8
2019-02-15T07:08:37.470Z,18.8
2019-02-15T07:09:27.865Z,18.8
2019-02-15T07:11:08.155Z,18.8
2019-02-15T07:11:57.804Z,18.8
2019-02-15T07:12:48.024Z,18.8
2019-02-15T07:13:37.534Z,18.8
2019-02-15T07:14:28.194Z,18.8
2019-02-15T07:15:18.730Z,18.8
2019-02-15T07:16:08.247Z,18.8
2019-02-15T07:16:58.568Z,18.8
2019-02-15T07:17:48.569Z,18.8
2019-02-15T07:18:38.428Z,18.8
2019-02-15T07:19:57.801Z,18.8
2019-02-15T07:20:18.256Z,18.8
2019-02-15T07:21:08.548Z,18.8
2019-02-15T07:22:13.544Z,18.8
2019-02-15T07:22:49.033Z,18.8
2019-02-15T07:23:38.984Z,18.8
2019-02-15T07:24:28.708Z,18.8
2019-02-15T07:25:19.144Z,18.8
2019-02-15T07:26:24.021Z,18.8
2019-02-15T07:26:59.138Z,18.8
2019-02-15T07:27:48.968Z,18.8
2019-02-15T07:28:41.258Z,18.8
2019-02-15T07:29:29.638Z,18.8
2019-02-15T07:30:19.278Z,18.8
2019-02-15T07:31:09.577Z,18.8
2019-02-15T07:31:58.765Z,18.8
2019-02-15T07:32:49.130Z,18.8
2019-02-15T07:33:39.426Z,18.8
2019-02-15T07:34:44.097Z,18.8
2019-02-15T07:35:34.285Z,18.8
2019-02-15T07:36:11.129Z,18.8
2019-02-15T07:36:59.788Z,18.8
2019-02-15T07:37:50.041Z,18.8
2019-02-15T07:38:40.117Z,18.8
2019-02-15T07:39:44.945Z,18.8
2019-02-15T07:41:10.320Z,18.8
2019-02-15T07:42:14.667Z,18.8
2019-02-15T07:42:50.495Z,18.8
2019-02-15T07:43:40.144Z,18.8
2019-02-15T07:44:30.102Z,18.8
2019-02-15T07:47:51.084Z,18.8
2019-02-15T07:49:30.288Z,18.8
2019-02-15T07:50:20.868Z,18.8
2019-02-15T07:53:45.544Z,18.8
2019-02-15T07:54:35.071Z,18.8
2019-02-15T08:32:08.429Z,18.8
2019-02-15T08:32:57.939Z,18.8
2019-02-15T08:33:48.068Z,18.8
2019-02-15T08:34:38.598Z,18.8
2019-02-15T08:35:28.127Z,18.8
2019-02-15T08:37:08.509Z,18.8
2019-02-15T08:38:48.762Z,18.8
2019-02-15T08:39:38.441Z,18.8
2019-02-15T08:40:29.039Z,18.8
2019-02-15T08:41:18.796Z,18.8
2019-02-15T08:42:58.656Z,18.8
2019-02-15T08:45:28.904Z,18.8
2019-02-15T08:46:18.866Z,18.8
2019-02-15T08:47:08.933Z,18.8
2019-02-15T08:47:59.671Z,18.8
2019-02-15T08:49:39.323Z,18.8
2019-02-15T08:52:09.779Z,18.8
2019-02-15T08:53:51.811Z,18.8
2019-02-15T08:55:28.903Z,18.8
2019-02-15T08:56:19.532Z,18.8
2019-02-15T09:04:40.377Z,18.8
2019-02-15T09:13:00.977Z,18.6
2019-02-15T09:16:21.171Z,18.6
2019-02-15T09:18:51.339Z,18.6
2019-02-15T09:19:41.097Z,18.6
2019-02-15T09:20:31.193Z,18.6
2019-02-15T09:21:21.521Z,18.6
2019-02-15T09:22:11.552Z,18.6
2019-02-15T09:23:01.613Z,18.6
2019-02-15T09:23:51.936Z,18.6
2019-02-15T09:24:42.011Z,18.6
2019-02-15T09:25:32.061Z,18.6
2019-02-15T09:26:22.143Z,18.6
2019-02-15T09:27:11.884Z,18.6
2019-02-15T09:28:01.658Z,18.6
2019-02-15T09:28:52.308Z,18.6
2019-02-15T09:29:41.773Z,18.6
2019-02-15T09:30:32.118Z,18.6
2019-02-15T09:31:21.954Z,18.6
2019-02-15T09:32:11.951Z,18.6
2019-02-15T09:33:02.568Z,18.6
2019-02-15T09:33:52.225Z,18.6
2019-02-15T09:34:42.743Z,18.6
2019-02-15T09:35:32.456Z,18.6
2019-02-15T09:36:22.530Z,18.6
2019-02-15T09:37:12.890Z,18.6
2019-02-15T09:38:02.668Z,18.6
2019-02-15T09:38:52.960Z,18.6
2019-02-15T09:39:43.056Z,18.6
2019-02-15T09:40:32.795Z,18.5
2019-02-15T09:41:23.140Z,18.6
2019-02-15T09:42:13.175Z,18.6
2019-02-15T09:43:02.686Z,18.6
2019-02-15T09:43:53.320Z,18.6
2019-02-15T09:44:43.080Z,18.5
2019-02-15T09:45:35.092Z,18.5
2019-02-15T09:46:23.593Z,18.5
2019-02-15T09:47:13.525Z,18.6
2019-02-15T09:48:02.777Z,18.5
2019-02-15T09:48:53.154Z,18.5
2019-02-15T09:49:48.042Z,18.5
2019-02-15T09:50:33.737Z,18.5
2019-02-15T09:51:23.297Z,18.5
2019-02-15T09:52:13.334Z,18.5
2019-02-15T09:53:03.672Z,18.5
2019-02-15T09:53:54.021Z,18.5
2019-02-15T09:54:44.091Z,18.5
2019-02-15T09:55:33.832Z,18.5
2019-02-15T09:56:24.164Z,18.5
2019-02-15T09:57:14.234Z,18.5
2019-02-15T09:58:03.863Z,18.5
2019-02-15T09:58:53.051Z,18.4
2019-02-15T09:59:43.871Z,18.5
2019-02-15T10:00:33.894Z,18.4
2019-02-15T10:01:24.513Z,18.5
2019-02-15T10:02:13.503Z,18.5
2019-02-15T10:03:04.111Z,18.5
2019-02-15T10:03:56.747Z,18.4
2019-02-15T10:04:44.758Z,18.4
2019-02-15T10:07:07.673Z,18.4
2019-02-15T10:07:57.460Z,18.4
2019-02-15T10:08:47.598Z,18.4
2019-02-15T10:09:37.869Z,18.4
2019-02-15T10:10:27.688Z,18.4
2019-02-15T10:11:17.673Z,18.4
2019-02-15T10:12:08.022Z,18.4
2019-02-15T10:12:57.545Z,18.4
2019-02-15T10:13:48.088Z,18.4
2019-02-15T10:14:37.910Z,18.4
2019-02-15T10:15:28.264Z,18.4
2019-02-15T10:16:18.114Z,18.4
2019-02-15T10:17:07.553Z,18.4
2019-02-15T10:17:57.111Z,18.4
2019-02-15T10:18:48.215Z,18.4
2019-02-15T10:19:38.603Z,18.4
2019-02-15T10:20:27.769Z,18.4
2019-02-15T10:21:18.655Z,18.4
2019-02-15T10:22:08.438Z,18.4
2019-02-15T10:22:58.512Z,18.4
2019-02-15T10:23:48.577Z,18.4
2019-02-15T10:24:38.709Z,18.4
2019-02-15T10:25:28.687Z,18.4
2019-02-15T10:26:18.732Z,18.4
2019-02-15T10:27:08.317Z,18.4
2019-02-15T10:27:58.638Z,18.4
2019-02-15T10:28:49.033Z,18.4
2019-02-15T10:29:39.227Z,18.4
2019-02-15T10:30:28.739Z,18.3
2019-02-15T10:31:19.077Z,18.3
2019-02-15T10:32:09.625Z,18.4
2019-02-15T10:32:59.239Z,18.3
2019-02-15T10:33:49.539Z,18.3
2019-02-15T10:34:39.299Z,18.3
2019-02-15T10:35:29.344Z,18.3
2019-02-15T10:36:21.400Z,18.3
2019-02-15T10:37:09.492Z,18.3
2019-02-15T10:37:59.261Z,18.3
2019-02-15T10:38:49.980Z,18.3
2019-02-15T10:39:39.367Z,18.3
2019-02-15T10:40:29.989Z,18.3
2019-02-15T10:41:19.767Z,18.3
2019-02-15T10:42:09.817Z,18.3
2019-02-15T10:43:00.148Z,18.3
2019-02-15T10:43:50.447Z,18.3
2019-02-15T10:44:39.709Z,18.3
2019-02-15T10:45:29.305Z,18.3
2019-02-15T10:46:19.901Z,18.3
2019-02-15T10:47:27.723Z,18.3
2019-02-15T10:47:59.994Z,18.3
2019-02-15T10:48:49.965Z,18.3
2019-02-15T10:49:40.371Z,18.3
2019-02-15T10:50:30.409Z,18.3
2019-02-15T10:51:20.495Z,18.3
2019-02-15T10:52:10.571Z,18.3
2019-02-15T10:53:00.841Z,18.3
2019-02-15T10:53:50.728Z,18.3
2019-02-15T10:54:40.685Z,18.3
2019-02-15T10:55:30.438Z,18.3
2019-02-15T10:56:20.846Z,18.3
2019-02-15T10:57:10.883Z,18.3
2019-02-15T10:58:01.194Z,18.3
2019-02-15T10:58:51.466Z,18.3
2019-02-15T10:59:41.113Z,18.3
2019-02-15T11:00:30.536Z,18.3
2019-02-15T11:01:20.885Z,18.3
2019-02-15T11:02:11.256Z,18.3
2019-02-15T11:03:01.275Z,18.3
2019-02-15T11:03:51.660Z,18.2
2019-02-15T11:04:43.017Z,18.3
2019-02-15T11:05:31.705Z,18.3
2019-02-15T11:06:21.785Z,18.2
2019-02-15T11:07:10.994Z,18.3
2019-02-15T11:08:01.649Z,18.2
2019-02-15T11:08:51.681Z,18.2
2019-02-15T11:09:41.717Z,18.2
2019-02-15T11:10:34.287Z,18.2
2019-02-15T11:11:21.567Z,18.2
2019-02-15T11:12:11.895Z,18.2
2019-02-15T11:13:02.208Z,18.2
2019-02-15T11:13:51.442Z,18.2
2019-02-15T11:14:42.081Z,18.2
2019-02-15T11:15:32.132Z,18.2
2019-02-15T11:16:22.183Z,18.2
2019-02-15T11:17:12.034Z,18.2
2019-02-15T11:18:02.646Z,18.2
2019-02-15T11:18:52.344Z,18.2
2019-02-15T11:19:42.152Z,18.2
2019-02-15T11:20:32.186Z,18.2
2019-02-15T11:21:22.829Z,18.2
2019-02-15T11:22:12.316Z,18.2
2019-02-15T11:23:02.662Z,18.2
2019-02-15T11:23:52.421Z,18.2
2019-02-15T11:24:43.036Z,18.2
2019-02-15T11:25:32.836Z,18.2
2019-02-15T11:26:28.362Z,18.2
2019-02-15T11:27:12.926Z,18.2
2019-02-15T11:28:03.283Z,18.2
2019-02-15T11:28:53.046Z,18.2
2019-02-15T11:29:43.151Z,18.2
2019-02-15T11:30:32.888Z,18.2
2019-02-15T11:31:23.221Z,18.1
2019-02-15T11:32:13.080Z,18.1
2019-02-15T11:33:02.781Z,18.1
2019-02-15T11:33:53.666Z,18.2
2019-02-15T11:34:43.452Z,18.2
2019-02-15T11:35:33.781Z,18.1
2019-02-15T11:36:23.286Z,18.1
2019-02-15T11:37:13.983Z,18.2
2019-02-15T11:38:03.469Z,18.1
2019-02-15T11:38:53.745Z,18.1
2019-02-15T11:39:43.805Z,18.1
2019-02-15T11:40:33.580Z,18.1
2019-02-15T11:41:23.925Z,18.1
2019-02-15T11:42:13.970Z,18.1
2019-02-15T11:43:03.782Z,18.1
2019-02-15T11:43:53.818Z,18.1
2019-02-15T11:44:43.579Z,18.1
2019-02-15T11:45:34.516Z,18.1
2019-02-15T11:46:24.560Z,18.1
2019-02-15T11:47:14.312Z,18.1
2019-02-15T11:48:04.395Z,18.1
2019-02-15T11:48:53.947Z,18.1
2019-02-15T11:49:44.187Z,18.1
2019-02-15T11:50:34.287Z,18.1
2019-02-15T11:51:24.317Z,18.1
2019-02-15T11:52:14.935Z,18.1
2019-02-15T11:53:04.995Z,18.1
2019-02-15T11:53:54.769Z,18.1
2019-02-15T11:54:44.823Z,18.1
2019-02-15T11:55:34.908Z,18.1
2019-02-15T11:56:24.947Z,18.1
2019-02-15T11:57:15.002Z,18.1
2019-02-15T11:58:05.079Z,18.1
2019-02-15T11:58:55.404Z,18.1
2019-02-15T11:59:45.164Z,18.1
2019-02-15T12:00:35.587Z,18.1
2019-02-15T12:01:25.363Z,18.1
2019-02-15T12:02:15.668Z,18.1
2019-02-15T12:03:05.669Z,18.1
2019-02-15T12:03:55.504Z,18.1
2019-02-15T12:04:45.808Z,18.1
2019-02-15T12:07:07.224Z,18.1
2019-02-15T12:07:57.295Z,18.1
2019-02-15T12:08:48.534Z,18.1
2019-02-15T12:09:37.887Z,18.1
2019-02-15T12:10:26.969Z,18.1
2019-02-15T12:11:18.096Z,18.1
2019-02-15T12:12:57.221Z,18.1
2019-02-15T12:13:48.200Z,18.1
2019-02-15T12:14:37.545Z,18.1
2019-02-15T12:15:42.261Z,18.1
2019-02-15T12:16:17.961Z,18.1
2019-02-15T12:17:09.312Z,18.1
2019-02-15T12:17:57.930Z,18.1
2019-02-15T12:18:48.529Z,18.1
2019-02-15T12:19:38.134Z,18.1
2019-02-15T12:20:28.240Z,18.1
2019-02-15T12:21:19.256Z,18.1
2019-02-15T12:22:08.846Z,18.1
2019-02-15T12:22:58.390Z,18.1
2019-02-15T12:24:03.125Z,18.1
2019-02-15T12:24:38.495Z,18.1
2019-02-15T12:25:27.536Z,18.1
2019-02-15T12:26:18.410Z,18.1
2019-02-15T12:27:08.407Z,18.1
2019-02-15T12:27:58.460Z,18.1
2019-02-15T12:28:48.309Z,18.1
2019-02-15T12:29:38.300Z,18.1
2019-02-15T12:30:28.087Z,18.1
2019-02-15T12:31:18.950Z,18.1